createdAt,value
2023-02-28T00:01:28.080Z,92387.88
2023-02-28T00:04:00.970Z,92394.34
2023-02-28T00:06:33.366Z,92390.69
2023-02-28T00:09:05.798Z,92397.91
2023-02-28T00:11:38.216Z,92388.84
2023-02-28T00:14:10.610Z,92398.47
2023-02-28T00:16:43.726Z,92403.16
2023-02-28T00:19:16.181Z,92401.59
2023-02-28T00:21:48.629Z,92407.06
2023-02-28T00:24:21.137Z,92407.31
2023-02-28T00:26:53.622Z,92414.06
2023-02-28T00:29:25.975Z,92413.25
2023-02-28T00:31:59.010Z,92412.22
2023-02-28T00:34:31.398Z,92409.38
2023-02-28T00:37:04.301Z,92404.97
2023-02-28T00:39:39.846Z,92393.75
2023-02-28T00:42:12.303Z,92401.56
2023-02-28T00:44:44.755Z,92406.75
2023-02-28T00:47:18.618Z,92402.09
2023-02-28T00:49:51.196Z,92399.25
2023-02-28T00:52:23.602Z,92396.91
2023-02-28T00:54:56.148Z,92400.03
2023-02-28T00:57:28.595Z,92401.53
2023-02-28T01:00:01.083Z,92403.59
2023-02-28T01:02:34.365Z,92387.81
2023-02-28T01:05:07.487Z,92399.75
2023-02-28T01:07:39.869Z,92395.88
2023-02-28T01:10:12.690Z,92391.47
2023-02-28T01:12:45.085Z,92385.75
2023-02-28T01:15:17.587Z,92385.75
2023-02-28T01:17:51.782Z,92393.50
2023-02-28T01:20:24.644Z,92389.84
2023-02-28T01:22:57.085Z,92390.88
2023-02-28T01:25:29.554Z,92392.19
2023-02-28T01:28:02.010Z,92388.31
2023-02-28T01:30:34.426Z,92393.75
2023-02-28T01:33:07.729Z,92385.22
2023-02-28T01:35:40.177Z,92381.59
2023-02-28T01:38:21.624Z,92389.63
2023-02-28T01:40:55.128Z,92392.19
2023-02-28T01:43:29.430Z,92391.94
2023-02-28T01:46:02.027Z,92392.72
2023-02-28T01:48:39.303Z,92393.53
2023-02-28T01:51:15.694Z,92392.50
2023-02-28T01:53:52.061Z,92393.75
2023-02-28T01:56:29.631Z,92394.56
2023-02-28T01:59:02.983Z,92404.41
2023-02-28T02:01:35.656Z,92400.28
2023-02-28T02:04:08.814Z,92395.09
2023-02-28T02:06:45.245Z,92391.47
2023-02-28T02:09:17.621Z,92397.69
2023-02-28T02:11:50.035Z,92390.69
2023-02-28T02:14:41.260Z,92394.56
2023-02-28T02:17:24.850Z,92397.16
2023-02-28T02:20:49.016Z,92399.00
2023-02-28T02:23:54.885Z,92395.34
2023-02-28T02:26:49.353Z,92396.16
2023-02-28T02:29:54.616Z,92395.63
2023-02-28T02:32:50.237Z,92397.72
2023-02-28T02:35:28.649Z,92401.31
2023-02-28T02:38:10.289Z,92407.81
2023-02-28T02:40:51.048Z,92406.50
2023-02-28T02:43:29.879Z,92408.06
2023-02-28T02:46:06.938Z,92408.06
2023-02-28T02:48:43.081Z,92415.81
2023-02-28T02:51:19.567Z,92410.13
2023-02-28T02:53:55.609Z,92409.88
2023-02-28T02:56:30.938Z,92411.94
2023-02-28T02:59:06.514Z,92418.69
2023-02-28T03:01:40.821Z,92411.94
2023-02-28T03:04:19.587Z,92417.13
2023-02-28T03:06:55.060Z,92419.47
2023-02-28T03:09:28.089Z,92420.00
2023-02-28T03:12:00.876Z,92417.13
2023-02-28T03:14:46.917Z,92422.84
2023-02-28T03:17:34.986Z,92429.81
2023-02-28T03:20:17.857Z,92424.66
2023-02-28T03:23:03.818Z,92429.31
2023-02-28T03:25:44.140Z,92426.72
2023-02-28T03:28:25.745Z,92436.53
2023-02-28T03:31:03.854Z,92430.06
2023-02-28T03:33:40.157Z,92432.41
2023-02-28T03:36:16.509Z,92437.31
2023-02-28T03:38:53.371Z,92430.59
2023-02-28T03:41:32.114Z,92447.16
2023-02-28T03:44:09.892Z,92445.09
2023-02-28T03:46:48.052Z,92445.81
2023-02-28T03:49:24.630Z,92443.22
2023-02-28T03:51:59.945Z,92443.47
2023-02-28T03:54:38.426Z,92450.97
2023-02-28T03:57:14.826Z,92446.88
2023-02-28T03:59:51.671Z,92442.47
2023-02-28T04:02:24.747Z,92437.28
2023-02-28T04:04:57.154Z,92446.03
2023-02-28T04:07:30.354Z,92454.97
2023-02-28T04:10:04.536Z,92453.31
2023-02-28T04:12:36.938Z,92446.19
2023-02-28T04:15:10.859Z,92445.81
2023-02-28T04:17:43.176Z,92441.13
2023-02-28T04:20:15.611Z,92440.63
2023-02-28T04:22:48.100Z,92445.03
2023-02-28T04:25:21.152Z,92446.06
2023-02-28T04:27:55.050Z,92443.56
2023-02-28T04:30:27.406Z,92442.06
2023-02-28T04:33:00.395Z,92446.97
2023-02-28T04:35:32.827Z,92439.19
2023-02-28T04:38:05.173Z,92442.53
2023-02-28T04:40:38.174Z,92448.72
2023-02-28T04:43:10.494Z,92448.91
2023-02-28T04:45:43.343Z,92448.59
2023-02-28T04:48:15.762Z,92454.81
2023-02-28T04:50:48.146Z,92458.63
2023-02-28T04:53:20.829Z,92456.38
2023-02-28T04:55:53.809Z,92465.03
2023-02-28T04:58:26.381Z,92469.44
2023-02-28T05:01:03.583Z,92473.25
2023-02-28T05:03:35.965Z,92468.09
2023-02-28T05:06:08.787Z,92474.91
2023-02-28T05:08:41.380Z,92468.22
2023-02-28T05:11:18.162Z,92475.53
2023-02-28T05:13:51.346Z,92478.34
2023-02-28T05:16:23.695Z,92477.88
2023-02-28T05:18:56.036Z,92483.06
2023-02-28T05:21:31.060Z,92482.66
2023-02-28T05:24:05.691Z,92482.94
2023-02-28T05:26:41.064Z,92488.31
2023-02-28T05:29:13.324Z,92488.91
2023-02-28T05:31:45.942Z,92494.78
2023-02-28T05:34:18.324Z,92500.25
2023-02-28T05:36:50.601Z,92504.31
2023-02-28T05:39:22.943Z,92505.34
2023-02-28T05:41:56.006Z,92505.72
2023-02-28T05:44:28.413Z,92507.22
2023-02-28T05:47:00.805Z,92509.34
2023-02-28T05:49:33.098Z,92505.94
2023-02-28T05:52:05.488Z,92515.34
2023-02-28T05:54:37.873Z,92512.00
2023-02-28T05:57:19.079Z,92518.44
2023-02-28T05:59:56.435Z,92519.41
2023-02-28T06:02:29.029Z,92527.19
2023-02-28T06:05:01.751Z,92519.91
2023-02-28T06:07:34.112Z,92511.81
2023-02-28T06:10:07.588Z,92516.28
2023-02-28T06:12:41.926Z,92522.72
2023-02-28T06:15:15.403Z,92517.28
2023-02-28T06:17:47.801Z,92532.16
2023-02-28T06:20:20.269Z,92530.16
2023-02-28T06:22:54.725Z,92529.41
2023-02-28T06:25:27.968Z,92532.81
2023-02-28T06:28:01.092Z,92537.47
2023-02-28T06:30:34.049Z,92531.00
2023-02-28T06:33:06.378Z,92529.28
2023-02-28T06:35:38.931Z,92533.94
2023-02-28T06:38:11.405Z,92536.84
2023-02-28T06:40:44.110Z,92536.06
2023-02-28T06:43:17.235Z,92537.03
2023-02-28T06:45:49.668Z,92533.66
2023-02-28T06:48:22.135Z,92533.63
2023-02-28T06:51:02.452Z,92539.00
2023-02-28T06:53:35.329Z,92545.75
2023-02-28T06:56:10.536Z,92548.81
2023-02-28T06:58:47.431Z,92549.09
2023-02-28T07:01:20.608Z,92543.97
2023-02-28T07:03:53.067Z,92553.09
2023-02-28T07:06:25.453Z,92546.88
2023-02-28T07:08:58.096Z,92555.25
2023-02-28T07:11:30.725Z,92549.31
2023-02-28T07:14:03.936Z,92551.94
2023-02-28T07:16:36.657Z,92554.22
2023-02-28T07:19:09.102Z,92551.88
2023-02-28T07:21:41.507Z,92557.28
2023-02-28T07:24:15.985Z,92563.00
2023-02-28T07:26:48.319Z,92553.53
2023-02-28T07:29:21.554Z,92560.81
2023-02-28T07:31:54.266Z,92555.38
2023-02-28T07:34:26.669Z,92556.44
2023-02-28T07:36:58.974Z,92555.59
2023-02-28T07:39:31.295Z,92564.91
2023-02-28T07:42:05.316Z,92559.53
2023-02-28T07:44:40.808Z,92547.38
2023-02-28T07:47:13.208Z,92565.22
2023-02-28T07:49:46.294Z,92562.72
2023-02-28T07:52:18.626Z,92558.31
2023-02-28T07:54:50.957Z,92565.09
2023-02-28T07:57:23.200Z,92554.72
2023-02-28T07:59:56.258Z,92555.88
2023-02-28T08:02:28.574Z,92553.31
2023-02-28T08:05:01.732Z,92551.25
2023-02-28T08:07:34.196Z,92544.56
2023-02-28T08:10:09.124Z,92555.69
2023-02-28T08:12:41.418Z,92555.25
2023-02-28T08:15:14.422Z,92555.56
2023-02-28T08:17:46.817Z,92560.75
2023-02-28T08:20:19.462Z,92559.47
2023-02-28T08:22:51.811Z,92563.38
2023-02-28T08:25:24.244Z,92563.88
2023-02-28T08:27:56.595Z,92562.59
2023-02-28T08:30:29.645Z,92562.34
2023-02-28T08:33:02.411Z,92565.19
2023-02-28T08:35:37.022Z,92564.41
2023-02-28T08:38:09.404Z,92569.28
2023-02-28T08:40:41.707Z,92562.81
2023-02-28T08:43:14.116Z,92571.13
2023-02-28T08:45:47.268Z,92567.47
2023-02-28T08:48:19.756Z,92568.50
2023-02-28T08:51:06.753Z,92560.69
2023-02-28T08:53:40.956Z,92563.53
2023-02-28T08:56:14.993Z,92559.44
2023-02-28T08:58:49.925Z,92567.47
2023-02-28T09:01:24.893Z,92570.59
2023-02-28T09:03:58.567Z,92562.31
2023-02-28T09:06:31.158Z,92556.59
2023-02-28T09:09:06.315Z,92561.25
2023-02-28T09:11:38.861Z,92558.41
2023-02-28T09:14:11.218Z,92556.63
2023-02-28T09:16:44.365Z,92553.00
2023-02-28T09:19:16.773Z,92553.78
2023-02-28T09:21:49.033Z,92554.28
2023-02-28T09:24:21.430Z,92548.59
2023-02-28T09:27:03.820Z,92555.31
2023-02-28T09:29:36.842Z,92552.22
2023-02-28T09:32:09.906Z,92558.44
2023-02-28T09:34:42.368Z,92557.13
2023-02-28T09:37:14.735Z,92550.41
2023-02-28T09:39:47.162Z,92549.63
2023-02-28T09:42:26.822Z,92548.88
2023-02-28T09:45:01.491Z,92539.53
2023-02-28T09:47:39.011Z,92547.28
2023-02-28T09:50:20.314Z,92544.69
2023-02-28T09:52:55.225Z,92543.13
2023-02-28T09:55:35.230Z,92540.53
2023-02-28T09:58:21.440Z,92538.75
2023-02-28T10:01:04.024Z,92546.00
2023-02-28T10:03:40.540Z,92540.28
2023-02-28T10:06:17.676Z,92536.41
2023-02-28T10:08:59.067Z,92538.22
2023-02-28T10:11:35.029Z,92526.53
2023-02-28T10:14:13.757Z,92525.25
2023-02-28T10:16:52.248Z,92527.06
2023-02-28T10:19:32.789Z,92523.16
2023-02-28T10:22:13.346Z,92521.59
2023-02-28T10:24:47.180Z,92517.19
2023-02-28T10:27:22.077Z,92521.09
2023-02-28T10:29:56.255Z,92504.47
2023-02-28T10:32:31.982Z,92514.53
2023-02-28T10:35:16.760Z,92505.44
2023-02-28T10:37:51.414Z,92503.31
2023-02-28T10:40:31.364Z,92502.44
2023-02-28T10:43:05.854Z,92504.72
2023-02-28T10:45:38.591Z,92497.88
2023-02-28T10:48:30.178Z,92489.19
2023-02-28T10:51:04.858Z,92487.25
2023-02-28T10:54:00.005Z,92491.59
2023-02-28T10:56:33.470Z,92484.44
2023-02-28T10:59:28.660Z,92490.63
2023-02-28T11:02:01.481Z,92477.91
2023-02-28T11:04:36.896Z,92478.16
2023-02-28T11:07:22.110Z,92476.25
2023-02-28T11:09:57.782Z,92470.44
2023-02-28T11:12:47.012Z,92464.63
2023-02-28T11:15:26.913Z,92461.69
2023-02-28T11:18:02.578Z,92468.56
2023-02-28T11:20:35.439Z,92454.38
2023-02-28T11:23:14.826Z,92450.34
2023-02-28T11:25:51.398Z,92448.44
2023-02-28T11:28:29.765Z,92452.75
2023-02-28T11:31:05.770Z,92451.31
2023-02-28T11:33:45.250Z,92448.41
2023-02-28T11:36:21.375Z,92436.72
2023-02-28T11:38:56.281Z,92433.13
2023-02-28T11:41:46.892Z,92437.53
2023-02-28T11:44:32.655Z,92430.28
2023-02-28T11:47:11.833Z,92431.25
2023-02-28T11:49:51.065Z,92428.94
2023-02-28T11:52:34.381Z,92434.06
2023-02-28T11:55:17.571Z,92426.94
2023-02-28T11:58:10.192Z,92427.31
2023-02-28T12:01:11.203Z,92431.75
2023-02-28T12:03:59.201Z,92430.03
2023-02-28T12:06:37.424Z,92436.41
2023-02-28T12:09:28.629Z,92420.66
2023-02-28T12:12:11.397Z,92424.22
2023-02-28T12:15:04.714Z,92424.47
2023-02-28T12:17:50.513Z,92422.28
2023-02-28T12:20:30.337Z,92419.75
2023-02-28T12:23:22.608Z,92419.41
2023-02-28T12:26:03.290Z,92414.75
2023-02-28T12:28:42.278Z,92414.38
2023-02-28T12:31:19.284Z,92406.91
2023-02-28T12:33:54.927Z,92415.84
2023-02-28T12:36:28.901Z,92414.00
2023-02-28T12:39:07.223Z,92409.66
2023-02-28T12:41:45.524Z,92413.78
2023-02-28T12:44:22.636Z,92405.34
2023-02-28T12:47:00.428Z,92407.13
2023-02-28T12:49:39.104Z,92402.78
2023-02-28T12:52:16.828Z,92394.69
2023-02-28T12:54:55.472Z,92395.88
2023-02-28T12:57:37.438Z,92394.16
2023-02-28T13:00:16.224Z,92389.19
2023-02-28T13:03:07.141Z,92388.81
2023-02-28T13:06:20.507Z,92385.81
2023-02-28T13:09:05.706Z,92382.13
2023-02-28T13:11:43.074Z,92379.66
2023-02-28T13:14:26.480Z,92382.34
2023-02-28T13:17:11.013Z,92386.84
2023-02-28T13:19:46.039Z,92380.03
2023-02-28T13:22:21.610Z,92383.97
2023-02-28T13:24:54.893Z,92366.00
2023-02-28T13:27:37.202Z,92369.25
2023-02-28T13:30:47.058Z,92372.00
2023-02-28T13:33:25.261Z,92364.97
2023-02-28T13:36:23.747Z,92364.97
2023-02-28T13:39:00.918Z,92362.22
2023-02-28T13:41:47.321Z,92356.59
2023-02-28T13:44:24.359Z,92353.41
2023-02-28T13:47:28.813Z,92345.59
2023-02-28T13:50:23.518Z,92335.63
2023-02-28T13:53:16.379Z,92343.56
2023-02-28T13:55:58.054Z,92340.31
2023-02-28T13:58:43.827Z,92343.16
2023-02-28T14:01:28.489Z,92344.97
2023-02-28T14:04:26.263Z,92348.97
2023-02-28T14:07:00.959Z,92343.00
2023-02-28T14:09:36.229Z,92346.16
2023-02-28T14:12:46.127Z,92355.09
2023-02-28T14:15:47.093Z,92346.94
2023-02-28T14:18:27.293Z,92343.75
2023-02-28T14:21:10.223Z,92340.09
2023-02-28T14:24:03.901Z,92345.66
2023-02-28T14:27:01.647Z,92351.44
2023-02-28T14:30:12.315Z,92353.69
2023-02-28T14:32:52.098Z,92354.81
2023-02-28T14:35:36.276Z,92358.53
2023-02-28T14:38:17.697Z,92349.56
2023-02-28T14:40:53.887Z,92350.50
2023-02-28T14:43:28.229Z,92347.41
2023-02-28T14:46:02.567Z,92343.09
2023-02-28T14:48:36.188Z,92339.09
2023-02-28T14:51:09.942Z,92332.47
2023-02-28T14:53:42.508Z,92340.22
2023-02-28T14:56:22.892Z,92338.38
2023-02-28T14:58:57.404Z,92339.09
2023-02-28T15:01:30.814Z,92336.44
2023-02-28T15:04:06.141Z,92340.84
2023-02-28T15:06:38.571Z,92340.84
2023-02-28T15:09:14.875Z,92340.09
2023-02-28T15:11:50.616Z,92337.34
2023-02-28T15:14:23.135Z,92335.13
2023-02-28T15:17:00.881Z,92341.56
2023-02-28T15:19:37.620Z,92336.13
2023-02-28T15:22:17.204Z,92343.66
2023-02-28T15:24:52.470Z,92350.19
2023-02-28T15:27:28.600Z,92351.19
2023-02-28T15:30:06.498Z,92347.09
2023-02-28T15:32:40.361Z,92345.13
2023-02-28T15:35:26.029Z,92351.88
2023-02-28T15:38:01.498Z,92339.25
2023-02-28T15:40:38.335Z,92345.56
2023-02-28T15:43:17.092Z,92357.31
2023-02-28T15:45:51.937Z,92354.75
2023-02-28T15:48:27.698Z,92359.47
2023-02-28T15:51:06.787Z,92360.16
2023-02-28T15:53:48.773Z,92364.41
2023-02-28T15:56:25.176Z,92356.38
2023-02-28T15:59:01.004Z,92360.09
2023-02-28T16:01:34.870Z,92367.63
2023-02-28T16:04:14.805Z,92376.03
2023-02-28T16:06:48.732Z,92383.09
2023-02-28T16:09:21.183Z,92383.59
2023-02-28T16:11:57.110Z,92384.91
2023-02-28T16:14:31.114Z,92378.41
2023-02-28T16:17:05.843Z,92387.53
2023-02-28T16:19:38.177Z,92401.28
2023-02-28T16:22:10.588Z,92407.06
2023-02-28T16:24:43.145Z,92412.81
2023-02-28T16:27:20.344Z,92415.72
2023-02-28T16:29:54.211Z,92420.13
2023-02-28T16:32:26.571Z,92416.00
2023-02-28T16:34:59.059Z,92416.78
2023-02-28T16:37:31.528Z,92419.94
2023-02-28T16:40:04.297Z,92419.94
2023-02-28T16:42:39.218Z,92424.38
2023-02-28T16:45:19.512Z,92422.56
2023-02-28T16:47:52.550Z,92421.31
2023-02-28T16:50:28.049Z,92444.34
2023-02-28T16:53:00.851Z,92434.47
2023-02-28T16:55:34.930Z,92431.13
2023-02-28T16:58:07.290Z,92434.53
2023-02-28T17:00:40.404Z,92434.22
2023-02-28T17:03:31.989Z,92440.47
2023-02-28T17:06:05.978Z,92449.28
2023-02-28T17:08:38.939Z,92444.13
2023-02-28T17:11:11.356Z,92437.91
2023-02-28T17:13:43.776Z,92435.56
2023-02-28T17:16:23.847Z,92432.97
2023-02-28T17:18:59.032Z,92433.50
2023-02-28T17:21:31.958Z,92431.16
2023-02-28T17:24:05.052Z,92424.69
2023-02-28T17:26:37.442Z,92431.97
2023-02-28T17:29:16.495Z,92429.38
2023-02-28T17:31:49.610Z,92422.09
2023-02-28T17:34:22.388Z,92427.53
2023-02-28T17:36:54.719Z,92422.09
2023-02-28T17:39:27.184Z,92423.88
2023-02-28T17:41:59.546Z,92411.72
2023-02-28T17:44:31.845Z,92410.91
2023-02-28T17:47:04.950Z,92410.38
2023-02-28T17:49:37.374Z,92411.94
2023-02-28T17:52:09.805Z,92403.13
2023-02-28T17:54:43.565Z,92396.38
2023-02-28T17:57:16.355Z,92409.56
2023-02-28T17:59:48.757Z,92413.44
2023-02-28T18:02:21.774Z,92414.50
2023-02-28T18:04:54.083Z,92407.97
2023-02-28T18:07:26.386Z,92402.53
2023-02-28T18:09:58.744Z,92412.88
2023-02-28T18:12:31.605Z,92415.72
2023-02-28T18:15:04.692Z,92420.91
2023-02-28T18:17:37.688Z,92419.06
2023-02-28T18:20:11.388Z,92425.25
2023-02-28T18:22:43.718Z,92422.91
2023-02-28T18:25:17.263Z,92403.50
2023-02-28T18:27:57.686Z,92422.41
2023-02-28T18:30:38.008Z,92428.06
2023-02-28T18:33:10.973Z,92428.34
2023-02-28T18:35:43.988Z,92430.97
2023-02-28T18:38:19.179Z,92431.75
2023-02-28T18:40:53.538Z,92434.09
2023-02-28T18:43:25.942Z,92431.47
2023-02-28T18:46:02.969Z,92444.19
2023-02-28T18:48:36.105Z,92441.88
2023-02-28T18:51:09.190Z,92441.59
2023-02-28T18:53:42.647Z,92440.84
2023-02-28T18:56:17.443Z,92447.03
2023-02-28T18:58:50.150Z,92452.72
2023-02-28T19:01:23.948Z,92447.34
2023-02-28T19:03:58.175Z,92446.00
2023-02-28T19:06:32.338Z,92450.66
2023-02-28T19:09:05.529Z,92450.16
2023-02-28T19:11:38.048Z,92434.91
2023-02-28T19:14:10.329Z,92442.44
2023-02-28T19:16:42.680Z,92448.88
2023-02-28T19:19:15.646Z,92446.03
2023-02-28T19:21:47.910Z,92445.75
2023-02-28T19:24:20.482Z,92446.53
2023-02-28T19:26:52.817Z,92450.38
2023-02-28T19:29:25.159Z,92450.88
2023-02-28T19:31:58.099Z,92458.13
2023-02-28T19:34:31.361Z,92458.41
2023-02-28T19:37:03.656Z,92452.97
2023-02-28T19:39:40.619Z,92453.97
2023-02-28T19:42:15.043Z,92449.06
2023-02-28T19:44:47.375Z,92451.41
2023-02-28T19:47:19.714Z,92451.16
2023-02-28T19:49:53.997Z,92441.59
2023-02-28T19:52:26.350Z,92440.75
2023-02-28T19:54:58.851Z,92441.25
2023-02-28T19:57:31.220Z,92436.88
2023-02-28T20:00:04.615Z,92444.59
2023-02-28T20:02:44.844Z,92437.38
2023-02-28T20:05:18.209Z,92440.97
2023-02-28T20:07:50.591Z,92441.75
2023-02-28T20:10:23.112Z,92447.72
2023-02-28T20:12:55.623Z,92447.94
2023-02-28T20:15:28.353Z,92447.91
2023-02-28T20:18:00.815Z,92449.78
2023-02-28T20:20:36.760Z,92452.88
2023-02-28T20:23:09.163Z,92456.53
2023-02-28T20:25:41.886Z,92458.34
2023-02-28T20:28:14.311Z,92458.13
2023-02-28T20:30:48.084Z,92458.66
2023-02-28T20:33:20.414Z,92464.59
2023-02-28T20:35:59.205Z,92470.28
2023-02-28T20:38:31.648Z,92469.97
2023-02-28T20:41:05.129Z,92467.66
2023-02-28T20:43:37.423Z,92473.38
2023-02-28T20:46:10.102Z,92462.00
2023-02-28T20:48:42.433Z,92474.94
2023-02-28T20:51:15.891Z,92470.06
2023-02-28T20:53:48.380Z,92467.00
2023-02-28T20:56:22.993Z,92478.91
2023-02-28T20:58:56.824Z,92481.41
2023-02-28T21:01:30.781Z,92483.81
2023-02-28T21:04:05.633Z,92483.31
2023-02-28T21:06:42.285Z,92483.34
2023-02-28T21:09:15.596Z,92489.81
2023-02-28T21:11:48.764Z,92486.75
2023-02-28T21:14:21.198Z,92481.78
2023-02-28T21:16:53.553Z,92485.66
2023-02-28T21:19:26.109Z,92486.72
2023-02-28T21:21:59.047Z,92486.44
2023-02-28T21:24:31.940Z,92467.25
2023-02-28T21:27:04.325Z,92489.03
2023-02-28T21:29:36.921Z,92478.69
2023-02-28T21:32:09.312Z,92479.16
2023-02-28T21:34:41.823Z,92479.44
2023-02-28T21:37:14.796Z,92467.50
2023-02-28T21:39:47.062Z,92474.50
2023-02-28T21:42:19.397Z,92468.75
2023-02-28T21:44:51.682Z,92465.91
2023-02-28T21:47:24.011Z,92464.84
2023-02-28T21:49:56.296Z,92469.47
2023-02-28T21:52:29.233Z,92469.47
2023-02-28T21:55:01.892Z,92471.56
2023-02-28T21:57:35.254Z,92467.13
2023-02-28T22:00:11.261Z,92474.56
2023-02-28T22:02:46.389Z,92467.28
2023-02-28T22:05:18.723Z,92462.66
2023-02-28T22:07:51.650Z,92467.50
2023-02-28T22:10:24.581Z,92466.25
2023-02-28T22:13:01.048Z,92472.44
2023-02-28T22:15:36.465Z,92481.50
2023-02-28T22:18:08.825Z,92476.59
2023-02-28T22:20:41.079Z,92463.19
2023-02-28T22:23:14.062Z,92462.72
2023-02-28T22:25:46.354Z,92466.28
2023-02-28T22:28:18.652Z,92461.41
2023-02-28T22:30:50.951Z,92465.81
2023-02-28T22:33:23.818Z,92465.75
2023-02-28T22:35:56.222Z,92469.09
2023-02-28T22:38:29.266Z,92460.06
2023-02-28T22:41:02.498Z,92455.03
2023-02-28T22:43:34.868Z,92453.50
2023-02-28T22:46:08.969Z,92447.03
2023-02-28T22:48:41.326Z,92453.03
2023-02-28T22:51:15.707Z,92455.34
2023-02-28T22:53:49.873Z,92458.94
2023-02-28T22:56:23.893Z,92456.63
2023-02-28T22:58:58.434Z,92457.16
2023-02-28T23:01:33.216Z,92455.34
2023-02-28T23:04:06.615Z,92446.53
2023-02-28T23:06:41.714Z,92448.88
2023-02-28T23:09:17.378Z,92443.38
2023-02-28T23:11:50.896Z,92441.03
2023-02-28T23:14:23.248Z,92431.75
2023-02-28T23:16:55.669Z,92429.41
2023-02-28T23:19:30.288Z,92428.34
2023-02-28T23:22:04.809Z,92424.66
2023-02-28T23:24:38.756Z,92412.72
2023-02-28T23:27:11.056Z,92418.88
2023-02-28T23:29:43.367Z,92406.72
2023-02-28T23:32:15.799Z,92406.94
2023-02-28T23:34:48.245Z,92397.91
2023-02-28T23:37:20.620Z,92394.16
2023-02-28T23:39:53.768Z,92393.41
2023-02-28T23:42:26.316Z,92395.19
2023-02-28T23:44:58.616Z,92386.88
2023-02-28T23:47:31.786Z,92385.06
2023-02-28T23:50:04.888Z,92378.63
2023-02-28T23:52:37.207Z,92379.13
2023-02-28T23:55:11.068Z,92372.44
2023-02-28T23:57:43.502Z,92373.69
